sensor_id;sensor_type;location;lat;lon;timestamp;pressure;altitude;pressure_sealevel;temperature;humidity
12146;BME280;6136;47.032;15.398;2023-03-21T00:01:49;97673.44;;;6.28;100.00
12146;BME280;6136;47.032;15.398;2023-03-21T00:04:18;97677.63;;;6.32;100.00
12146;BME280;6136;47.032;15.398;2023-03-21T00:06:46;97676.59;;;6.36;100.00
12146;BME280;6136;47.032;15.398;2023-03-21T00:09:16;97675.69;;;6.37;100.00
12146;BME280;6136;47.032;15.398;2023-03-21T00:11:44;97675.53;;;6.40;100.00
12146;BME280;6136;47.032;15.398;2023-03-21T00:14:15;97672.78;;;6.43;100.00
12146;BME280;6136;47.032;15.398;2023-03-21T00:16:44;97673.19;;;6.53;100.00
12146;BME280;6136;47.032;15.398;2023-03-21T00:19:17;97672.09;;;6.58;100.00
12146;BME280;6136;47.032;15.398;2023-03-21T00:21:46;97676.22;;;6.64;100.00
12146;BME280;6136;47.032;15.398;2023-03-21T00:24:36;97672.44;;;6.70;100.00
12146;BME280;6136;47.032;15.398;2023-03-21T00:27:05;97673.94;;;6.75;100.00
12146;BME280;6136;47.032;15.398;2023-03-21T00:29:54;97658.88;;;6.79;100.00
12146;BME280;6136;47.032;15.398;2023-03-21T00:32:22;97665.69;;;6.83;100.00
12146;BME280;6136;47.032;15.398;2023-03-21T00:34:50;97663.72;;;6.88;100.00
12146;BME280;6136;47.032;15.398;2023-03-21T00:37:39;97664.34;;;6.93;100.00
12146;BME280;6136;47.032;15.398;2023-03-21T00:40:11;97659.72;;;6.98;100.00
12146;BME280;6136;47.032;15.398;2023-03-21T00:42:56;97657.75;;;7.03;100.00
12146;BME280;6136;47.032;15.398;2023-03-21T00:45:25;97661.16;;;7.05;100.00
12146;BME280;6136;47.032;15.398;2023-03-21T00:47:53;97649.56;;;7.09;100.00
12146;BME280;6136;47.032;15.398;2023-03-21T00:50:22;97660.44;;;7.20;100.00
12146;BME280;6136;47.032;15.398;2023-03-21T00:52:50;97664.47;;;7.27;100.00
12146;BME280;6136;47.032;15.398;2023-03-21T00:55:20;97655.81;;;7.25;100.00
12146;BME280;6136;47.032;15.398;2023-03-21T00:57:48;97657.50;;;7.26;100.00
12146;BME280;6136;47.032;15.398;2023-03-21T01:00:27;97662.94;;;7.23;100.00
12146;BME280;6136;47.032;15.398;2023-03-21T01:02:56;97662.69;;;7.28;100.00
12146;BME280;6136;47.032;15.398;2023-03-21T01:05:44;97655.59;;;7.30;100.00
12146;BME280;6136;47.032;15.398;2023-03-21T01:08:36;97656.44;;;7.30;100.00
12146;BME280;6136;47.032;15.398;2023-03-21T01:11:21;97651.66;;;7.38;100.00
12146;BME280;6136;47.032;15.398;2023-03-21T01:13:50;97646.16;;;7.43;100.00
12146;BME280;6136;47.032;15.398;2023-03-21T01:16:27;97639.03;;;7.45;100.00
12146;BME280;6136;47.032;15.398;2023-03-21T01:18:55;97631.97;;;7.46;100.00
12146;BME280;6136;47.032;15.398;2023-03-21T01:21:24;97650.13;;;7.52;100.00
12146;BME280;6136;47.032;15.398;2023-03-21T01:23:52;97643.00;;;7.54;100.00
12146;BME280;6136;47.032;15.398;2023-03-21T01:26:21;97653.56;;;7.54;100.00
12146;BME280;6136;47.032;15.398;2023-03-21T01:28:49;97648.22;;;7.55;100.00
12146;BME280;6136;47.032;15.398;2023-03-21T01:31:18;97647.97;;;7.60;100.00
12146;BME280;6136;47.032;15.398;2023-03-21T01:33:46;97637.44;;;7.60;100.00
12146;BME280;6136;47.032;15.398;2023-03-21T01:36:17;97640.31;;;7.72;100.00
12146;BME280;6136;47.032;15.398;2023-03-21T01:38:52;97647.09;;;7.78;100.00
12146;BME280;6136;47.032;15.398;2023-03-21T01:41:24;97642.72;;;7.77;100.00
12146;BME280;6136;47.032;15.398;2023-03-21T01:44:14;97640.31;;;7.72;100.00
12146;BME280;6136;47.032;15.398;2023-03-21T01:46:44;97637.72;;;7.71;100.00
12146;BME280;6136;47.032;15.398;2023-03-21T01:49:45;97636.06;;;7.70;100.00
12146;BME280;6136;47.032;15.398;2023-03-21T01:52:27;97629.81;;;7.71;100.00
12146;BME280;6136;47.032;15.398;2023-03-21T01:55:08;97628.81;;;7.73;100.00
12146;BME280;6136;47.032;15.398;2023-03-21T01:57:57;97635.41;;;7.65;100.00
12146;BME280;6136;47.032;15.398;2023-03-21T02:00:42;97628.28;;;7.67;100.00
12146;BME280;6136;47.032;15.398;2023-03-21T02:03:34;97616.94;;;7.65;100.00
12146;BME280;6136;47.032;15.398;2023-03-21T02:06:43;97611.19;;;7.57;100.00
12146;BME280;6136;47.032;15.398;2023-03-21T02:09:32;97612.91;;;7.58;100.00
12146;BME280;6136;47.032;15.398;2023-03-21T02:12:03;97603.94;;;7.62;100.00
12146;BME280;6136;47.032;15.398;2023-03-21T02:14:35;97604.06;;;7.59;100.00
12146;BME280;6136;47.032;15.398;2023-03-21T02:17:18;97601.81;;;7.51;100.00
12146;BME280;6136;47.032;15.398;2023-03-21T02:20:21;97601.13;;;7.48;100.00
12146;BME280;6136;47.032;15.398;2023-03-21T02:23:12;97598.94;;;7.38;100.00
12146;BME280;6136;47.032;15.398;2023-03-21T02:28:45;97595.09;;;7.27;100.00
12146;BME280;6136;47.032;15.398;2023-03-21T02:31:29;97609.00;;;7.12;100.00
12146;BME280;6136;47.032;15.398;2023-03-21T02:34:29;97600.84;;;6.99;100.00
12146;BME280;6136;47.032;15.398;2023-03-21T02:37:12;97605.13;;;6.83;100.00
12146;BME280;6136;47.032;15.398;2023-03-21T02:39:52;97603.84;;;6.73;100.00
12146;BME280;6136;47.032;15.398;2023-03-21T02:42:27;97594.94;;;6.56;100.00
12146;BME280;6136;47.032;15.398;2023-03-21T02:45:01;97598.63;;;6.52;100.00
12146;BME280;6136;47.032;15.398;2023-03-21T02:47:38;97590.94;;;6.48;100.00
12146;BME280;6136;47.032;15.398;2023-03-21T02:50:11;97597.63;;;6.36;100.00
12146;BME280;6136;47.032;15.398;2023-03-21T02:52:45;97592.91;;;6.24;100.00
12146;BME280;6136;47.032;15.398;2023-03-21T02:55:18;97589.56;;;6.20;100.00
12146;BME280;6136;47.032;15.398;2023-03-21T02:57:56;97599.50;;;6.14;100.00
12146;BME280;6136;47.032;15.398;2023-03-21T03:00:42;97598.06;;;6.07;100.00
12146;BME280;6136;47.032;15.398;2023-03-21T03:03:14;97597.41;;;6.02;100.00
12146;BME280;6136;47.032;15.398;2023-03-21T03:05:56;97603.84;;;5.95;100.00
12146;BME280;6136;47.032;15.398;2023-03-21T03:08:35;97601.66;;;5.84;100.00
12146;BME280;6136;47.032;15.398;2023-03-21T03:11:23;97598.19;;;5.83;100.00
12146;BME280;6136;47.032;15.398;2023-03-21T03:14:08;97603.19;;;5.90;100.00
12146;BME280;6136;47.032;15.398;2023-03-21T03:17:13;97602.28;;;5.91;100.00
12146;BME280;6136;47.032;15.398;2023-03-21T03:19:56;97604.59;;;5.98;100.00
12146;BME280;6136;47.032;15.398;2023-03-21T03:22:47;97606.88;;;6.06;100.00
12146;BME280;6136;47.032;15.398;2023-03-21T03:25:21;97602.66;;;6.02;100.00
12146;BME280;6136;47.032;15.398;2023-03-21T03:28:08;97607.84;;;6.03;100.00
12146;BME280;6136;47.032;15.398;2023-03-21T03:30:38;97602.81;;;5.99;100.00
12146;BME280;6136;47.032;15.398;2023-03-21T03:33:25;97600.34;;;5.94;100.00
12146;BME280;6136;47.032;15.398;2023-03-21T03:35:55;97606.41;;;5.96;100.00
12146;BME280;6136;47.032;15.398;2023-03-21T03:38:35;97613.59;;;5.93;100.00
12146;BME280;6136;47.032;15.398;2023-03-21T03:41:10;97608.84;;;6.01;100.00
12146;BME280;6136;47.032;15.398;2023-03-21T03:43:49;97620.31;;;6.00;100.00
12146;BME280;6136;47.032;15.398;2023-03-21T03:46:26;97613.34;;;5.99;100.00
12146;BME280;6136;47.032;15.398;2023-03-21T03:48:59;97605.50;;;5.97;100.00
12146;BME280;6136;47.032;15.398;2023-03-21T03:51:32;97609.91;;;5.97;100.00
12146;BME280;6136;47.032;15.398;2023-03-21T03:54:22;97615.28;;;5.94;100.00
12146;BME280;6136;47.032;15.398;2023-03-21T03:56:54;97611.19;;;5.86;100.00
12146;BME280;6136;47.032;15.398;2023-03-21T03:59:23;97613.94;;;5.83;100.00
12146;BME280;6136;47.032;15.398;2023-03-21T04:02:12;97619.72;;;5.71;100.00
12146;BME280;6136;47.032;15.398;2023-03-21T04:04:41;97625.50;;;5.59;100.00
12146;BME280;6136;47.032;15.398;2023-03-21T04:07:09;97623.28;;;5.48;100.00
12146;BME280;6136;47.032;15.398;2023-03-21T04:09:38;97627.94;;;5.42;100.00
12146;BME280;6136;47.032;15.398;2023-03-21T04:12:16;97619.50;;;5.34;100.00
12146;BME280;6136;47.032;15.398;2023-03-21T04:15:03;97614.56;;;5.26;100.00
12146;BME280;6136;47.032;15.398;2023-03-21T04:17:41;97614.81;;;5.20;100.00
12146;BME280;6136;47.032;15.398;2023-03-21T04:20:12;97615.00;;;5.16;100.00
12146;BME280;6136;47.032;15.398;2023-03-21T04:22:55;97618.81;;;5.08;100.00
12146;BME280;6136;47.032;15.398;2023-03-21T04:25:24;97620.78;;;5.03;100.00
12146;BME280;6136;47.032;15.398;2023-03-21T04:28:02;97626.19;;;4.99;100.00
12146;BME280;6136;47.032;15.398;2023-03-21T04:30:37;97621.38;;;4.88;100.00
12146;BME280;6136;47.032;15.398;2023-03-21T04:33:20;97624.19;;;4.82;100.00
12146;BME280;6136;47.032;15.398;2023-03-21T04:35:54;97622.66;;;4.77;100.00
12146;BME280;6136;47.032;15.398;2023-03-21T04:38:28;97628.91;;;4.74;100.00
12146;BME280;6136;47.032;15.398;2023-03-21T04:41:00;97632.66;;;4.67;100.00
12146;BME280;6136;47.032;15.398;2023-03-21T04:43:30;97632.59;;;4.68;100.00
12146;BME280;6136;47.032;15.398;2023-03-21T04:45:59;97631.13;;;4.61;100.00
12146;BME280;6136;47.032;15.398;2023-03-21T04:48:27;97629.59;;;4.56;100.00
12146;BME280;6136;47.032;15.398;2023-03-21T04:50:58;97629.81;;;4.50;100.00
12146;BME280;6136;47.032;15.398;2023-03-21T04:53:27;97631.97;;;4.39;100.00
12146;BME280;6136;47.032;15.398;2023-03-21T04:55:55;97626.84;;;4.36;100.00
12146;BME280;6136;47.032;15.398;2023-03-21T04:58:24;97613.03;;;4.30;100.00
12146;BME280;6136;47.032;15.398;2023-03-21T05:00:54;97624.34;;;4.33;100.00
12146;BME280;6136;47.032;15.398;2023-03-21T05:03:23;97628.91;;;4.27;100.00
12146;BME280;6136;47.032;15.398;2023-03-21T05:05:51;97637.69;;;4.26;100.00
12146;BME280;6136;47.032;15.398;2023-03-21T05:08:19;97635.16;;;4.23;100.00
12146;BME280;6136;47.032;15.398;2023-03-21T05:10:48;97641.31;;;4.22;100.00
12146;BME280;6136;47.032;15.398;2023-03-21T05:13:16;97630.66;;;4.27;100.00
12146;BME280;6136;47.032;15.398;2023-03-21T05:15:44;97634.88;;;4.31;100.00
12146;BME280;6136;47.032;15.398;2023-03-21T05:18:14;97638.31;;;4.33;100.00
12146;BME280;6136;47.032;15.398;2023-03-21T05:21:06;97640.28;;;4.26;100.00
12146;BME280;6136;47.032;15.398;2023-03-21T05:23:38;97646.19;;;4.33;100.00
12146;BME280;6136;47.032;15.398;2023-03-21T05:26:08;97645.28;;;4.34;100.00
12146;BME280;6136;47.032;15.398;2023-03-21T05:28:52;97646.13;;;4.35;100.00
12146;BME280;6136;47.032;15.398;2023-03-21T05:31:20;97651.31;;;4.36;100.00
12146;BME280;6136;47.032;15.398;2023-03-21T05:33:55;97652.00;;;4.41;100.00
12146;BME280;6136;47.032;15.398;2023-03-21T05:36:24;97649.19;;;4.46;100.00
12146;BME280;6136;47.032;15.398;2023-03-21T05:38:52;97656.00;;;4.51;100.00
12146;BME280;6136;47.032;15.398;2023-03-21T05:41:20;97650.59;;;4.56;100.00
12146;BME280;6136;47.032;15.398;2023-03-21T05:43:49;97651.41;;;4.58;100.00
12146;BME280;6136;47.032;15.398;2023-03-21T05:46:17;97644.09;;;4.66;100.00
12146;BME280;6136;47.032;15.398;2023-03-21T05:48:45;97655.03;;;4.77;100.00
12146;BME280;6136;47.032;15.398;2023-03-21T05:51:17;97659.31;;;4.80;100.00
12146;BME280;6136;47.032;15.398;2023-03-21T05:53:45;97660.03;;;4.83;100.00
12146;BME280;6136;47.032;15.398;2023-03-21T05:56:15;97665.19;;;4.86;100.00
12146;BME280;6136;47.032;15.398;2023-03-21T05:58:53;97670.19;;;4.92;100.00
12146;BME280;6136;47.032;15.398;2023-03-21T06:01:22;97668.25;;;4.97;100.00
12146;BME280;6136;47.032;15.398;2023-03-21T06:04:05;97665.28;;;5.06;100.00
12146;BME280;6136;47.032;15.398;2023-03-21T06:06:35;97666.59;;;5.18;100.00
12146;BME280;6136;47.032;15.398;2023-03-21T06:09:03;97669.13;;;5.41;100.00
12146;BME280;6136;47.032;15.398;2023-03-21T06:11:34;97674.25;;;5.66;100.00
12146;BME280;6136;47.032;15.398;2023-03-21T06:14:38;97667.66;;;6.00;100.00
12146;BME280;6136;47.032;15.398;2023-03-21T06:17:20;97664.63;;;6.29;100.00
12146;BME280;6136;47.032;15.398;2023-03-21T06:19:56;97661.69;;;6.55;100.00
12146;BME280;6136;47.032;15.398;2023-03-21T06:22:32;97668.41;;;6.81;100.00
12146;BME280;6136;47.032;15.398;2023-03-21T06:25:02;97667.13;;;7.09;100.00
12146;BME280;6136;47.032;15.398;2023-03-21T06:27:30;97659.75;;;7.34;100.00
12146;BME280;6136;47.032;15.398;2023-03-21T06:29:58;97663.06;;;7.56;100.00
12146;BME280;6136;47.032;15.398;2023-03-21T06:32:32;97662.44;;;7.87;100.00
12146;BME280;6136;47.032;15.398;2023-03-21T06:35:08;97664.63;;;8.13;100.00
12146;BME280;6136;47.032;15.398;2023-03-21T06:37:38;97658.28;;;8.35;100.00
12146;BME280;6136;47.032;15.398;2023-03-21T06:40:09;97669.88;;;8.65;100.00
12146;BME280;6136;47.032;15.398;2023-03-21T06:42:38;97677.00;;;8.80;100.00
12146;BME280;6136;47.032;15.398;2023-03-21T06:45:09;97677.13;;;9.10;98.18
12146;BME280;6136;47.032;15.398;2023-03-21T06:47:38;97679.25;;;9.35;95.63
12146;BME280;6136;47.032;15.398;2023-03-21T06:50:13;97682.34;;;9.59;95.85
12146;BME280;6136;47.032;15.398;2023-03-21T06:52:44;97674.97;;;9.80;92.61
12146;BME280;6136;47.032;15.398;2023-03-21T06:55:13;97677.66;;;9.94;91.80
12146;BME280;6136;47.032;15.398;2023-03-21T06:57:41;97677.63;;;10.25;88.18
12146;BME280;6136;47.032;15.398;2023-03-21T07:00:11;97678.66;;;10.67;86.60
12146;BME280;6136;47.032;15.398;2023-03-21T07:02:44;97675.56;;;11.44;82.48
12146;BME280;6136;47.032;15.398;2023-03-21T07:05:17;97670.66;;;12.96;73.22
12146;BME280;6136;47.032;15.398;2023-03-21T07:07:46;97675.38;;;14.60;64.93
12146;BME280;6136;47.032;15.398;2023-03-21T07:10:15;97660.81;;;15.98;59.63
12146;BME280;6136;47.032;15.398;2023-03-21T07:12:50;97660.41;;;16.66;54.77
12146;BME280;6136;47.032;15.398;2023-03-21T07:15:28;97653.22;;;17.98;50.96
12146;BME280;6136;47.032;15.398;2023-03-21T07:17:56;97660.28;;;18.76;47.55
12146;BME280;6136;47.032;15.398;2023-03-21T07:20:24;97656.47;;;19.90;44.33
12146;BME280;6136;47.032;15.398;2023-03-21T07:22:54;97658.44;;;19.88;44.46
12146;BME280;6136;47.032;15.398;2023-03-21T07:25:25;97653.63;;;20.36;42.03
12146;BME280;6136;47.032;15.398;2023-03-21T07:27:54;97655.53;;;20.44;41.65
12146;BME280;6136;47.032;15.398;2023-03-21T07:30:22;97664.31;;;18.99;46.08
12146;BME280;6136;47.032;15.398;2023-03-21T07:32:51;97657.00;;;19.48;43.89
12146;BME280;6136;47.032;15.398;2023-03-21T07:35:20;97663.59;;;19.07;46.66
12146;BME280;6136;47.032;15.398;2023-03-21T07:37:48;97661.88;;;19.16;46.04
12146;BME280;6136;47.032;15.398;2023-03-21T07:40:18;97664.16;;;19.85;43.59
12146;BME280;6136;47.032;15.398;2023-03-21T07:42:48;97660.22;;;20.42;42.06
12146;BME280;6136;47.032;15.398;2023-03-21T07:45:27;97651.25;;;20.77;41.55
12146;BME280;6136;47.032;15.398;2023-03-21T07:47:56;97666.31;;;21.73;39.80
12146;BME280;6136;47.032;15.398;2023-03-21T07:50:24;97646.16;;;22.84;37.71
12146;BME280;6136;47.032;15.398;2023-03-21T07:52:52;97652.91;;;22.96;36.54
12146;BME280;6136;47.032;15.398;2023-03-21T07:55:22;97650.88;;;23.70;34.54
12146;BME280;6136;47.032;15.398;2023-03-21T07:57:50;97643.75;;;24.08;34.17
12146;BME280;6136;47.032;15.398;2023-03-21T08:00:19;97646.56;;;23.36;35.19
12146;BME280;6136;47.032;15.398;2023-03-21T08:02:50;97639.75;;;25.76;31.42
12146;BME280;6136;47.032;15.398;2023-03-21T08:05:26;97632.38;;;24.12;34.11
12146;BME280;6136;47.032;15.398;2023-03-21T08:07:54;97648.63;;;23.81;34.49
12146;BME280;6136;47.032;15.398;2023-03-21T08:10:24;97641.59;;;25.32;31.88
12146;BME280;6136;47.032;15.398;2023-03-21T08:12:52;97637.06;;;24.95;31.66
12146;BME280;6136;47.032;15.398;2023-03-21T08:15:21;97637.59;;;23.52;34.14
12146;BME280;6136;47.032;15.398;2023-03-21T08:17:49;97635.13;;;23.73;34.03
12146;BME280;6136;47.032;15.398;2023-03-21T08:20:19;97633.25;;;23.74;34.21
12146;BME280;6136;47.032;15.398;2023-03-21T08:22:49;97629.97;;;23.55;33.85
12146;BME280;6136;47.032;15.398;2023-03-21T08:25:19;97626.25;;;25.24;31.57
12146;BME280;6136;47.032;15.398;2023-03-21T08:27:49;97624.63;;;25.00;31.82
12146;BME280;6136;47.032;15.398;2023-03-21T08:30:20;97622.22;;;25.35;31.70
12146;BME280;6136;47.032;15.398;2023-03-21T08:32:49;97621.00;;;25.52;31.18
12146;BME280;6136;47.032;15.398;2023-03-21T08:35:18;97613.72;;;24.48;31.75
12146;BME280;6136;47.032;15.398;2023-03-21T08:37:46;97612.81;;;24.56;31.99
12146;BME280;6136;47.032;15.398;2023-03-21T08:40:16;97601.97;;;24.56;32.30
12146;BME280;6136;47.032;15.398;2023-03-21T08:42:44;97611.66;;;25.40;30.95
12146;BME280;6136;47.032;15.398;2023-03-21T08:45:16;97606.25;;;25.69;30.46
12146;BME280;6136;47.032;15.398;2023-03-21T08:47:44;97606.25;;;25.40;31.06
12146;BME280;6136;47.032;15.398;2023-03-21T08:50:17;97600.44;;;27.49;28.07
12146;BME280;6136;47.032;15.398;2023-03-21T08:52:46;97606.22;;;27.39;28.19
12146;BME280;6136;47.032;15.398;2023-03-21T08:55:15;97604.78;;;26.88;29.02
12146;BME280;6136;47.032;15.398;2023-03-21T08:57:44;97601.91;;;27.17;28.42
12146;BME280;6136;47.032;15.398;2023-03-21T09:00:15;97604.28;;;26.99;28.67
12146;BME280;6136;47.032;15.398;2023-03-21T09:02:45;97596.88;;;27.49;28.12
12146;BME280;6136;47.032;15.398;2023-03-21T09:05:15;97597.13;;;28.82;25.91
12146;BME280;6136;47.032;15.398;2023-03-21T09:07:44;97595.84;;;28.84;26.23
12146;BME280;6136;47.032;15.398;2023-03-21T09:10:14;97603.34;;;27.82;26.42
12146;BME280;6136;47.032;15.398;2023-03-21T09:12:48;97593.22;;;26.79;27.77
12146;BME280;6136;47.032;15.398;2023-03-21T09:15:19;97597.56;;;26.74;27.34
12146;BME280;6136;47.032;15.398;2023-03-21T09:17:50;97590.13;;;26.82;27.30
12146;BME280;6136;47.032;15.398;2023-03-21T09:20:21;97592.44;;;28.43;24.90
12146;BME280;6136;47.032;15.398;2023-03-21T09:22:58;97602.41;;;29.81;23.23
12146;BME280;6136;47.032;15.398;2023-03-21T09:25:27;97584.69;;;30.72;22.24
12146;BME280;6136;47.032;15.398;2023-03-21T09:27:57;97583.03;;;30.96;20.33
12146;BME280;6136;47.032;15.398;2023-03-21T09:30:27;97583.19;;;30.76;21.75
12146;BME280;6136;47.032;15.398;2023-03-21T09:32:58;97582.19;;;30.71;21.58
12146;BME280;6136;47.032;15.398;2023-03-21T09:35:27;97583.69;;;28.80;22.42
12146;BME280;6136;47.032;15.398;2023-03-21T09:37:55;97570.56;;;27.28;23.82
12146;BME280;6136;47.032;15.398;2023-03-21T09:40:36;97575.56;;;26.47;24.38
12146;BME280;6136;47.032;15.398;2023-03-21T09:43:16;97569.34;;;24.26;26.56
12146;BME280;6136;47.032;15.398;2023-03-21T09:45:53;97573.19;;;22.76;29.11
12146;BME280;6136;47.032;15.398;2023-03-21T09:48:36;97566.59;;;22.70;28.21
12146;BME280;6136;47.032;15.398;2023-03-21T09:51:22;97561.72;;;22.17;29.20
12146;BME280;6136;47.032;15.398;2023-03-21T09:53:54;97572.91;;;21.72;31.43
12146;BME280;6136;47.032;15.398;2023-03-21T09:56:24;97572.88;;;20.88;nan
12146;BME280;6136;47.032;15.398;2023-03-21T09:58:55;97567.06;;;21.35;31.94
12146;BME280;6136;47.032;15.398;2023-03-21T10:01:28;97564.56;;;21.07;30.76
12146;BME280;6136;47.032;15.398;2023-03-21T10:04:03;97561.16;;;20.71;32.20
12146;BME280;6136;47.032;15.398;2023-03-21T10:06:33;97559.09;;;20.22;31.92
12146;BME280;6136;47.032;15.398;2023-03-21T10:09:11;97564.09;;;19.99;33.68
12146;BME280;6136;47.032;15.398;2023-03-21T10:11:44;97557.19;;;20.14;33.23
12146;BME280;6136;47.032;15.398;2023-03-21T10:14:18;97552.69;;;20.40;32.14
12146;BME280;6136;47.032;15.398;2023-03-21T10:16:51;97553.81;;;21.15;30.50
12146;BME280;6136;47.032;15.398;2023-03-21T10:19:23;97553.59;;;20.49;32.22
12146;BME280;6136;47.032;15.398;2023-03-21T10:21:51;97548.16;;;20.23;32.93
12146;BME280;6136;47.032;15.398;2023-03-21T10:24:32;97551.72;;;21.27;32.31
12146;BME280;6136;47.032;15.398;2023-03-21T10:27:01;97538.41;;;24.44;29.06
12146;BME280;6136;47.032;15.398;2023-03-21T10:29:33;97542.97;;;25.54;26.24
12146;BME280;6136;47.032;15.398;2023-03-21T10:32:08;97530.41;;;26.46;25.25
12146;BME280;6136;47.032;15.398;2023-03-21T10:34:40;97534.72;;;26.62;24.06
12146;BME280;6136;47.032;15.398;2023-03-21T10:37:10;97532.31;;;24.79;26.35
12146;BME280;6136;47.032;15.398;2023-03-21T10:39:40;97534.44;;;23.08;27.86
12146;BME280;6136;47.032;15.398;2023-03-21T10:42:17;97539.38;;;25.03;25.84
12146;BME280;6136;47.032;15.398;2023-03-21T10:44:48;97530.94;;;25.12;25.97
12146;BME280;6136;47.032;15.398;2023-03-21T10:47:24;97536.84;;;25.16;25.07
12146;BME280;6136;47.032;15.398;2023-03-21T10:49:53;97520.72;;;24.85;26.45
12146;BME280;6136;47.032;15.398;2023-03-21T10:52:34;97520.03;;;24.31;27.64
12146;BME280;6136;47.032;15.398;2023-03-21T10:55:07;97516.88;;;23.43;28.20
12146;BME280;6136;47.032;15.398;2023-03-21T10:57:39;97515.41;;;22.93;28.04
12146;BME280;6136;47.032;15.398;2023-03-21T11:00:12;97512.59;;;22.78;27.56
12146;BME280;6136;47.032;15.398;2023-03-21T11:02:49;97504.50;;;21.89;29.57
12146;BME280;6136;47.032;15.398;2023-03-21T11:05:21;97507.47;;;21.46;31.07
12146;BME280;6136;47.032;15.398;2023-03-21T11:07:58;97506.66;;;21.61;30.82
12146;BME280;6136;47.032;15.398;2023-03-21T11:10:29;97498.31;;;21.97;30.09
12146;BME280;6136;47.032;15.398;2023-03-21T11:13:03;97498.72;;;23.20;28.36
12146;BME280;6136;47.032;15.398;2023-03-21T11:15:39;97493.81;;;26.00;25.48
12146;BME280;6136;47.032;15.398;2023-03-21T11:18:18;97485.03;;;28.97;22.11
12146;BME280;6136;47.032;15.398;2023-03-21T11:20:52;97483.25;;;32.13;19.12
12146;BME280;6136;47.032;15.398;2023-03-21T11:23:25;97472.41;;;31.77;18.93
12146;BME280;6136;47.032;15.398;2023-03-21T11:25:53;97474.66;;;33.44;17.47
12146;BME280;6136;47.032;15.398;2023-03-21T11:28:25;97466.69;;;32.85;17.73
12146;BME280;6136;47.032;15.398;2023-03-21T11:31:01;97457.34;;;32.62;17.67
12146;BME280;6136;47.032;15.398;2023-03-21T11:33:34;97455.56;;;34.06;16.94
12146;BME280;6136;47.032;15.398;2023-03-21T11:36:05;97460.06;;;32.39;17.63
12146;BME280;6136;47.032;15.398;2023-03-21T11:38:37;97460.16;;;29.31;20.29
12146;BME280;6136;47.032;15.398;2023-03-21T11:41:06;97459.72;;;26.67;22.79
12146;BME280;6136;47.032;15.398;2023-03-21T11:43:35;97457.00;;;23.54;27.80
12146;BME280;6136;47.032;15.398;2023-03-21T11:46:06;97451.66;;;23.07;27.64
12146;BME280;6136;47.032;15.398;2023-03-21T11:48:40;97452.44;;;22.68;27.79
12146;BME280;6136;47.032;15.398;2023-03-21T11:51:25;97445.13;;;21.57;30.00
12146;BME280;6136;47.032;15.398;2023-03-21T11:54:03;97445.41;;;21.21;30.29
12146;BME280;6136;47.032;15.398;2023-03-21T11:56:33;97450.03;;;21.03;30.90
12146;BME280;6136;47.032;15.398;2023-03-21T11:59:17;97446.84;;;20.66;32.13
12146;BME280;6136;47.032;15.398;2023-03-21T12:01:59;97442.75;;;21.46;30.91
12146;BME280;6136;47.032;15.398;2023-03-21T12:04:38;97428.28;;;24.13;27.08
12146;BME280;6136;47.032;15.398;2023-03-21T12:07:32;97426.03;;;26.13;25.79
12146;BME280;6136;47.032;15.398;2023-03-21T12:10:21;97415.38;;;28.87;22.27
12146;BME280;6136;47.032;15.398;2023-03-21T12:12:56;97414.09;;;28.97;22.40
12146;BME280;6136;47.032;15.398;2023-03-21T12:15:32;97408.66;;;30.35;21.25
12146;BME280;6136;47.032;15.398;2023-03-21T12:18:08;97407.63;;;32.35;18.49
12146;BME280;6136;47.032;15.398;2023-03-21T12:20:46;97402.59;;;32.21;18.10
12146;BME280;6136;47.032;15.398;2023-03-21T12:23:29;97401.06;;;32.60;18.07
12146;BME280;6136;47.032;15.398;2023-03-21T12:26:13;97413.09;;;32.94;18.31
12146;BME280;6136;47.032;15.398;2023-03-21T12:28:58;97390.59;;;33.60;16.92
12146;BME280;6136;47.032;15.398;2023-03-21T12:31:37;97392.31;;;31.75;19.01
12146;BME280;6136;47.032;15.398;2023-03-21T12:34:23;97385.97;;;33.21;18.08
12146;BME280;6136;47.032;15.398;2023-03-21T12:37:06;97382.94;;;30.68;19.96
12146;BME280;6136;47.032;15.398;2023-03-21T12:39:39;97384.22;;;26.76;23.42
12146;BME280;6136;47.032;15.398;2023-03-21T12:42:35;97378.88;;;25.93;24.82
12146;BME280;6136;47.032;15.398;2023-03-21T12:45:12;97380.78;;;25.99;24.64
12146;BME280;6136;47.032;15.398;2023-03-21T12:47:46;97368.63;;;25.52;26.34
12146;BME280;6136;47.032;15.398;2023-03-21T12:50:21;97367.41;;;24.97;27.22
12146;BME280;6136;47.032;15.398;2023-03-21T12:52:56;97358.81;;;24.79;26.23
12146;BME280;6136;47.032;15.398;2023-03-21T12:55:27;97358.50;;;25.39;26.39
12146;BME280;6136;47.032;15.398;2023-03-21T12:58:01;97356.81;;;24.52;27.27
12146;BME280;6136;47.032;15.398;2023-03-21T13:00:35;97352.44;;;23.84;28.76
12146;BME280;6136;47.032;15.398;2023-03-21T13:03:10;97348.72;;;23.85;27.67
12146;BME280;6136;47.032;15.398;2023-03-21T13:05:42;97350.63;;;23.08;28.54
12146;BME280;6136;47.032;15.398;2023-03-21T13:08:18;97346.91;;;22.31;30.78
12146;BME280;6136;47.032;15.398;2023-03-21T13:10:47;97333.88;;;22.51;29.88
12146;BME280;6136;47.032;15.398;2023-03-21T13:13:21;97338.50;;;22.26;30.55
12146;BME280;6136;47.032;15.398;2023-03-21T13:15:58;97330.63;;;22.94;29.49
12146;BME280;6136;47.032;15.398;2023-03-21T13:18:34;97336.97;;;24.07;27.36
12146;BME280;6136;47.032;15.398;2023-03-21T13:21:11;97338.91;;;23.84;27.80
12146;BME280;6136;47.032;15.398;2023-03-21T13:23:55;97326.38;;;25.00;26.40
12146;BME280;6136;47.032;15.398;2023-03-21T13:26:36;97329.75;;;25.24;27.52
12146;BME280;6136;47.032;15.398;2023-03-21T13:29:12;97319.47;;;28.00;23.33
12146;BME280;6136;47.032;15.398;2023-03-21T13:31:47;97315.66;;;27.94;23.25
12146;BME280;6136;47.032;15.398;2023-03-21T13:34:20;97301.38;;;28.38;22.50
12146;BME280;6136;47.032;15.398;2023-03-21T13:36:50;97301.41;;;26.31;25.54
12146;BME280;6136;47.032;15.398;2023-03-21T13:39:26;97310.22;;;24.27;28.25
12146;BME280;6136;47.032;15.398;2023-03-21T13:42:02;97304.13;;;23.35;29.23